createdAt,value
2017-03-03T00:00:32.896Z,964.58
2017-03-03T00:01:43.587Z,964.56
2017-03-03T00:02:54.274Z,964.59
2017-03-03T00:04:04.985Z,964.57
2017-03-03T00:05:15.679Z,964.61
2017-03-03T00:06:26.361Z,964.56
2017-03-03T00:07:37.058Z,964.54
2017-03-03T00:08:47.370Z,964.57
2017-03-03T00:09:58.079Z,964.57
2017-03-03T00:11:08.397Z,964.57
2017-03-03T00:12:19.094Z,964.62
2017-03-03T00:13:29.411Z,964.66
2017-03-03T00:14:40.114Z,964.6
2017-03-03T00:15:50.818Z,964.65
2017-03-03T00:17:01.527Z,964.61
2017-03-03T00:18:12.227Z,964.6
2017-03-03T00:19:22.516Z,964.57
2017-03-03T00:20:33.209Z,964.59
2017-03-03T00:21:43.914Z,964.54
2017-03-03T00:22:54.626Z,964.53
2017-03-03T00:24:05.321Z,964.53
2017-03-03T00:25:15.628Z,964.53
2017-03-03T00:26:26.575Z,964.52
2017-03-03T00:27:37.277Z,964.52
2017-03-03T00:28:47.965Z,964.54
2017-03-03T00:29:58.664Z,964.52
2017-03-03T00:31:08.561Z,964.56
2017-03-03T00:32:19.261Z,964.6
2017-03-03T00:33:29.964Z,964.57
2017-03-03T00:34:40.275Z,964.62
2017-03-03T00:35:50.987Z,964.64
2017-03-03T00:37:01.681Z,964.67
2017-03-03T00:38:14.404Z,964.67
2017-03-03T00:39:25.092Z,964.7
2017-03-03T00:40:35.795Z,964.67
2017-03-03T00:41:46.487Z,964.67
2017-03-03T00:42:57.193Z,964.66
2017-03-03T00:44:07.528Z,964.64
2017-03-03T00:45:17.824Z,964.71
2017-03-03T00:46:27.724Z,964.69
2017-03-03T00:47:38.042Z,964.68
2017-03-03T00:48:48.748Z,964.68
2017-03-03T00:49:58.660Z,964.7
2017-03-03T00:51:09.380Z,964.69
2017-03-03T00:52:20.088Z,964.7
2017-03-03T00:53:30.798Z,964.72
2017-03-03T00:54:41.515Z,964.75
2017-03-03T00:55:51.808Z,964.73
2017-03-03T00:57:02.499Z,964.74
2017-03-03T00:58:13.201Z,964.73
2017-03-03T00:59:23.905Z,964.78
2017-03-03T01:00:34.604Z,964.73
2017-03-03T01:01:45.340Z,964.68
2017-03-03T01:02:56.052Z,964.72
2017-03-03T01:04:06.771Z,964.71
2017-03-03T01:05:17.476Z,964.73
2017-03-03T01:06:28.175Z,964.74
2017-03-03T01:07:38.883Z,964.73
2017-03-03T01:08:49.593Z,964.71
2017-03-03T01:10:00.291Z,964.78
2017-03-03T01:11:11.013Z,964.77
2017-03-03T01:12:21.736Z,964.78
2017-03-03T01:13:32.436Z,964.79
2017-03-03T01:14:43.152Z,964.77
2017-03-03T01:15:53.838Z,964.73
2017-03-03T01:17:04.554Z,964.75
2017-03-03T01:18:15.257Z,964.7
2017-03-03T01:19:25.598Z,964.73
2017-03-03T01:20:36.306Z,964.82
2017-03-03T01:21:47.011Z,964.78
2017-03-03T01:22:57.327Z,964.78
2017-03-03T01:24:08.049Z,964.8
2017-03-03T01:25:18.745Z,964.81
2017-03-03T01:26:29.468Z,964.85
2017-03-03T01:27:40.189Z,964.86
2017-03-03T01:28:50.505Z,964.84
2017-03-03T01:30:00.804Z,964.8
2017-03-03T01:31:11.517Z,964.79
2017-03-03T01:32:22.211Z,964.84
2017-03-03T01:33:32.612Z,964.81
2017-03-03T01:34:43.296Z,964.75
2017-03-03T01:35:53.623Z,964.79
2017-03-03T01:37:04.330Z,964.82
2017-03-03T01:38:15.023Z,964.79
2017-03-03T01:39:25.733Z,964.78
2017-03-03T01:40:36.438Z,964.77
2017-03-03T01:41:47.135Z,964.76
2017-03-03T01:42:59.841Z,964.77
2017-03-03T01:44:10.546Z,964.75
2017-03-03T01:45:21.254Z,964.74
2017-03-03T01:46:31.953Z,964.78
2017-03-03T01:47:42.648Z,964.76
2017-03-03T01:48:52.943Z,964.77
2017-03-03T01:50:03.668Z,964.81
2017-03-03T01:51:14.371Z,964.77
2017-03-03T01:52:25.109Z,964.81
2017-03-03T01:53:35.799Z,964.79
2017-03-03T01:54:46.501Z,964.82
2017-03-03T01:55:56.808Z,964.81
2017-03-03T01:57:07.526Z,964.8
2017-03-03T01:58:18.214Z,964.79
2017-03-03T01:59:28.923Z,964.82
2017-03-03T02:00:39.645Z,964.79
2017-03-03T02:01:50.353Z,964.81
2017-03-03T02:03:00.682Z,964.82
2017-03-03T02:04:11.371Z,964.81
2017-03-03T02:05:22.096Z,964.78
2017-03-03T02:06:32.410Z,964.81
2017-03-03T02:07:43.121Z,964.81
2017-03-03T02:08:53.831Z,964.78
2017-03-03T02:10:04.539Z,964.79
2017-03-03T02:11:15.233Z,964.78
2017-03-03T02:12:25.528Z,964.82
2017-03-03T02:13:35.869Z,964.79
2017-03-03T02:14:46.575Z,964.83
2017-03-03T02:15:57.272Z,964.77
2017-03-03T02:17:07.975Z,964.77
2017-03-03T02:18:18.679Z,964.78
2017-03-03T02:19:29.367Z,964.78
2017-03-03T02:20:40.066Z,964.79
2017-03-03T02:21:50.773Z,964.77
2017-03-03T02:23:01.480Z,964.81
2017-03-03T02:24:12.171Z,964.78
2017-03-03T02:25:22.885Z,964.82
2017-03-03T02:26:33.579Z,964.82
2017-03-03T02:27:44.301Z,964.86
2017-03-03T02:28:55.004Z,964.84
2017-03-03T02:30:05.723Z,964.81
2017-03-03T02:31:16.052Z,964.87
2017-03-03T02:32:26.771Z,964.79
2017-03-03T02:33:37.081Z,964.82
2017-03-03T02:34:47.792Z,964.85
2017-03-03T02:35:58.490Z,964.88
2017-03-03T02:37:09.205Z,964.88
2017-03-03T02:38:19.931Z,964.95
2017-03-03T02:39:30.657Z,964.93
2017-03-03T02:40:41.385Z,964.95
2017-03-03T02:41:52.068Z,964.96
2017-03-03T02:43:02.780Z,964.92
2017-03-03T02:44:13.089Z,964.94
2017-03-03T02:45:23.377Z,964.87
2017-03-03T02:46:34.090Z,964.92
2017-03-03T02:47:44.398Z,964.93
2017-03-03T02:48:55.095Z,964.92
2017-03-03T02:50:05.811Z,964.95
2017-03-03T02:51:16.129Z,964.93
2017-03-03T02:52:26.823Z,964.96
2017-03-03T02:53:37.510Z,964.95
2017-03-03T02:54:47.808Z,964.95
2017-03-03T02:55:58.099Z,964.97
2017-03-03T02:57:08.791Z,964.92
2017-03-03T02:58:19.480Z,964.93
2017-03-03T02:59:29.787Z,964.97
2017-03-03T03:00:40.089Z,965
2017-03-03T03:01:50.795Z,964.97
2017-03-03T03:03:01.493Z,964.98
2017-03-03T03:04:12.203Z,964.93
2017-03-03T03:05:22.509Z,964.99
2017-03-03T03:06:32.809Z,965.01
2017-03-03T03:07:43.503Z,964.97
2017-03-03T03:08:54.217Z,965
2017-03-03T03:10:04.935Z,964.96
2017-03-03T03:11:15.646Z,965
2017-03-03T03:12:26.341Z,965.03
2017-03-03T03:13:37.071Z,965.02
2017-03-03T03:14:47.781Z,965.04
2017-03-03T03:15:58.070Z,965.08
2017-03-03T03:17:08.761Z,965.08
2017-03-03T03:18:19.484Z,965.12
2017-03-03T03:19:29.796Z,965.09
2017-03-03T03:20:40.497Z,965.09
2017-03-03T03:21:50.793Z,965.1
2017-03-03T03:23:01.522Z,965.09
2017-03-03T03:24:12.236Z,965.05
2017-03-03T03:25:22.945Z,965.1
2017-03-03T03:26:33.648Z,965.13
2017-03-03T03:27:44.345Z,965.09
2017-03-03T03:28:54.676Z,965.11
2017-03-03T03:30:05.379Z,965.16
2017-03-03T03:31:16.079Z,965.16
2017-03-03T03:32:26.380Z,965.14
2017-03-03T03:33:37.070Z,965.18
2017-03-03T03:34:47.767Z,965.15
2017-03-03T03:35:58.485Z,965.13
2017-03-03T03:37:09.189Z,965.18
2017-03-03T03:38:19.892Z,965.2
2017-03-03T03:39:30.201Z,965.19
2017-03-03T03:40:40.917Z,965.18
2017-03-03T03:41:51.634Z,965.19
2017-03-03T03:43:02.324Z,965.22
2017-03-03T03:44:13.016Z,965.2
2017-03-03T03:45:23.721Z,965.24
2017-03-03T03:46:34.428Z,965.2
2017-03-03T03:47:44.735Z,965.18
2017-03-03T03:48:55.455Z,965.15
2017-03-03T03:50:05.778Z,965.19
2017-03-03T03:51:16.495Z,965.18
2017-03-03T03:52:27.198Z,965.19
2017-03-03T03:53:37.520Z,965.19
2017-03-03T03:54:48.218Z,965.21
2017-03-03T03:55:58.902Z,965.22
2017-03-03T03:57:09.599Z,965.22
2017-03-03T03:58:19.908Z,965.18
2017-03-03T03:59:29.809Z,965.21
2017-03-03T04:00:40.508Z,965.2
2017-03-03T04:01:51.221Z,965.2
2017-03-03T04:03:01.531Z,965.21
2017-03-03T04:04:12.224Z,965.2
2017-03-03T04:05:22.915Z,965.2
2017-03-03T04:06:33.623Z,965.17
2017-03-03T04:07:44.351Z,965.22
2017-03-03T04:08:54.639Z,965.18
2017-03-03T04:10:05.338Z,965.16
2017-03-03T04:11:15.663Z,965.16
2017-03-03T04:12:26.353Z,965.15
2017-03-03T04:13:37.040Z,965.17
2017-03-03T04:14:47.765Z,965.16
2017-03-03T04:15:58.473Z,965.2
2017-03-03T04:17:09.186Z,965.19
2017-03-03T04:18:19.911Z,965.21
2017-03-03T04:19:30.200Z,965.17
2017-03-03T04:20:40.887Z,965.22
2017-03-03T04:21:51.611Z,965.23
2017-03-03T04:23:01.933Z,965.27
2017-03-03T04:24:12.653Z,965.27
2017-03-03T04:25:23.333Z,965.26
2017-03-03T04:26:33.636Z,965.23
2017-03-03T04:27:44.328Z,965.24
2017-03-03T04:28:55.041Z,965.27
2017-03-03T04:30:05.743Z,965.27
2017-03-03T04:31:16.058Z,965.25
2017-03-03T04:32:26.753Z,965.25
2017-03-03T04:33:37.445Z,965.25
2017-03-03T04:34:48.151Z,965.24
2017-03-03T04:35:58.841Z,965.23
2017-03-03T04:37:09.542Z,965.28
2017-03-03T04:38:20.233Z,965.25
2017-03-03T04:39:30.926Z,965.27
2017-03-03T04:40:41.649Z,965.25
2017-03-03T04:41:52.348Z,965.26
2017-03-03T04:43:03.049Z,965.28
2017-03-03T04:44:13.338Z,965.23
2017-03-03T04:45:24.029Z,965.22
2017-03-03T04:46:34.728Z,965.27
2017-03-03T04:47:45.039Z,965.24
2017-03-03T04:48:55.733Z,965.27
2017-03-03T04:50:06.451Z,965.31
2017-03-03T04:51:17.164Z,965.3
2017-03-03T04:52:27.885Z,965.29
2017-03-03T04:53:38.594Z,965.3
2017-03-03T04:54:49.296Z,965.27
2017-03-03T04:55:59.997Z,965.21
2017-03-03T04:57:10.721Z,965.28
2017-03-03T04:58:21.432Z,965.28
2017-03-03T04:59:32.142Z,965.24
2017-03-03T05:00:42.839Z,965.22
2017-03-03T05:01:53.544Z,965.2
2017-03-03T05:03:03.860Z,965.23
2017-03-03T05:04:14.565Z,965.25
2017-03-03T05:05:25.262Z,965.27
2017-03-03T05:06:35.953Z,965.25
2017-03-03T05:07:46.262Z,965.27
2017-03-03T05:08:56.965Z,965.3
2017-03-03T05:10:07.656Z,965.28
2017-03-03T05:11:18.370Z,965.3
2017-03-03T05:12:29.077Z,965.28
2017-03-03T05:13:39.769Z,965.25
2017-03-03T05:14:50.497Z,965.31
2017-03-03T05:16:01.209Z,965.28
2017-03-03T05:17:11.551Z,965.32
2017-03-03T05:18:22.263Z,965.34
2017-03-03T05:19:32.571Z,965.34
2017-03-03T05:20:42.893Z,965.33
2017-03-03T05:21:53.187Z,965.39
2017-03-03T05:23:03.873Z,965.33
2017-03-03T05:24:14.177Z,965.34
2017-03-03T05:25:24.861Z,965.4
2017-03-03T05:26:35.160Z,965.43
2017-03-03T05:27:45.860Z,965.44
2017-03-03T05:28:56.549Z,965.43
2017-03-03T05:30:07.265Z,965.4
2017-03-03T05:31:17.964Z,965.45
2017-03-03T05:32:28.667Z,965.47
2017-03-03T05:33:39.359Z,965.44
2017-03-03T05:34:50.062Z,965.49
2017-03-03T05:36:00.381Z,965.48
2017-03-03T05:37:11.076Z,965.51
2017-03-03T05:38:21.788Z,965.52
2017-03-03T05:39:32.093Z,965.46
2017-03-03T05:40:42.796Z,965.51
2017-03-03T05:41:53.502Z,965.48
2017-03-03T05:43:03.808Z,965.51
2017-03-03T05:44:14.511Z,965.57
2017-03-03T05:45:25.200Z,965.53
2017-03-03T05:46:35.912Z,965.6
2017-03-03T05:47:46.223Z,965.55
2017-03-03T05:48:56.938Z,965.51
2017-03-03T05:50:07.238Z,965.56
2017-03-03T05:51:17.946Z,965.53
2017-03-03T05:52:28.641Z,965.56
2017-03-03T05:53:39.335Z,965.56
2017-03-03T05:54:50.062Z,965.6
2017-03-03T05:56:00.762Z,965.61
2017-03-03T05:57:11.086Z,965.61
2017-03-03T05:58:21.778Z,965.61
2017-03-03T05:59:32.486Z,965.67
2017-03-03T06:00:42.780Z,965.64
2017-03-03T06:01:53.483Z,965.67
2017-03-03T06:03:04.192Z,965.67
2017-03-03T06:04:14.884Z,965.66
2017-03-03T06:05:24.794Z,965.68
2017-03-03T06:06:35.514Z,965.71
2017-03-03T06:07:46.237Z,965.72
2017-03-03T06:08:56.953Z,965.72
2017-03-03T06:10:07.658Z,965.7
2017-03-03T06:11:18.361Z,965.71
2017-03-03T06:12:29.069Z,965.72
2017-03-03T06:13:39.780Z,965.75
2017-03-03T06:14:50.496Z,965.77
2017-03-03T06:16:01.206Z,965.75
2017-03-03T06:17:11.917Z,965.78
2017-03-03T06:18:22.250Z,965.78
2017-03-03T06:19:32.960Z,965.79
2017-03-03T06:20:43.263Z,965.8
2017-03-03T06:21:53.948Z,965.82
2017-03-03T06:23:04.669Z,965.84
2017-03-03T06:24:15.377Z,965.82
2017-03-03T06:25:26.083Z,965.86
2017-03-03T06:26:36.808Z,965.84
2017-03-03T06:27:47.502Z,965.83
2017-03-03T06:28:58.210Z,965.87
2017-03-03T06:30:08.913Z,965.87
2017-03-03T06:31:19.758Z,965.93
2017-03-03T06:32:30.458Z,965.9
2017-03-03T06:33:41.166Z,965.94
2017-03-03T06:34:51.458Z,965.96
2017-03-03T06:36:02.163Z,965.92
2017-03-03T06:37:12.487Z,965.95
2017-03-03T06:38:23.199Z,965.98
2017-03-03T06:39:33.908Z,965.97
2017-03-03T06:40:44.614Z,966.01
2017-03-03T06:41:55.325Z,965.97
2017-03-03T06:43:06.025Z,965.99
2017-03-03T06:44:16.729Z,966.02
2017-03-03T06:45:27.423Z,965.99
2017-03-03T06:46:38.124Z,965.97
2017-03-03T06:47:48.832Z,965.99
2017-03-03T06:48:59.532Z,966.02
2017-03-03T06:50:10.244Z,966.04
2017-03-03T06:51:20.571Z,966.01
2017-03-03T06:52:31.279Z,966.07
2017-03-03T06:53:41.972Z,966.07
2017-03-03T06:54:52.669Z,966.1
2017-03-03T06:56:03.371Z,966.1
2017-03-03T06:57:13.289Z,966.15
2017-03-03T06:58:23.601Z,966.1
2017-03-03T06:59:33.523Z,966.15
2017-03-03T07:00:44.228Z,966.16
2017-03-03T07:01:54.921Z,966.17
2017-03-03T07:03:05.625Z,966.16
2017-03-03T07:04:16.327Z,966.14
2017-03-03T07:05:26.634Z,966.19
2017-03-03T07:06:37.343Z,966.19
2017-03-03T07:07:48.047Z,966.19
2017-03-03T07:08:58.734Z,966.19
2017-03-03T07:10:09.435Z,966.21
2017-03-03T07:11:20.125Z,966.18
2017-03-03T07:12:30.833Z,966.19
2017-03-03T07:13:41.535Z,966.18
2017-03-03T07:14:52.309Z,966.19
2017-03-03T07:16:03.066Z,966.18
2017-03-03T07:17:13.377Z,966.21
2017-03-03T07:18:24.085Z,966.22
2017-03-03T07:19:34.404Z,966.18
2017-03-03T07:20:45.116Z,966.26
2017-03-03T07:21:55.840Z,966.27
2017-03-03T07:23:06.540Z,966.27
2017-03-03T07:24:17.247Z,966.29
2017-03-03T07:25:27.178Z,966.3
2017-03-03T07:26:37.470Z,966.35
2017-03-03T07:27:48.174Z,966.38
2017-03-03T07:28:58.878Z,966.32
2017-03-03T07:30:09.575Z,966.37
2017-03-03T07:31:20.279Z,966.38
2017-03-03T07:32:30.968Z,966.44
2017-03-03T07:33:41.284Z,966.46
2017-03-03T07:34:51.980Z,966.42
2017-03-03T07:36:02.322Z,966.41
2017-03-03T07:37:13.050Z,966.43
2017-03-03T07:38:23.761Z,966.41
2017-03-03T07:39:34.060Z,966.45
2017-03-03T07:40:44.785Z,966.45
2017-03-03T07:41:55.486Z,966.49
2017-03-03T07:43:06.176Z,966.52
2017-03-03T07:44:16.870Z,966.47
2017-03-03T07:45:27.567Z,966.5
2017-03-03T07:46:38.266Z,966.52
2017-03-03T07:47:48.567Z,966.53
2017-03-03T07:48:59.279Z,966.51
2017-03-03T07:50:09.580Z,966.55
2017-03-03T07:51:20.289Z,966.54
2017-03-03T07:52:30.980Z,966.57
2017-03-03T07:53:41.692Z,966.54
2017-03-03T07:54:52.381Z,966.58
2017-03-03T07:56:03.116Z,966.59
2017-03-03T07:57:13.408Z,966.61
2017-03-03T07:58:24.113Z,966.62
2017-03-03T07:59:34.837Z,966.62
2017-03-03T08:00:45.565Z,966.63
2017-03-03T08:01:56.275Z,966.64
2017-03-03T08:03:06.176Z,966.67
2017-03-03T08:04:16.894Z,966.63
2017-03-03T08:05:27.587Z,966.62
2017-03-03T08:06:37.896Z,966.66
2017-03-03T08:07:48.581Z,966.7
2017-03-03T08:08:59.289Z,966.66
2017-03-03T08:10:10.000Z,966.71
2017-03-03T08:11:20.313Z,966.68
2017-03-03T08:12:31.035Z,966.71
2017-03-03T08:13:41.729Z,966.72
2017-03-03T08:14:52.434Z,966.74
2017-03-03T08:16:03.126Z,966.76
2017-03-03T08:17:13.453Z,966.83
2017-03-03T08:18:23.783Z,966.84
2017-03-03T08:19:34.499Z,966.91
2017-03-03T08:20:44.816Z,966.97
2017-03-03T08:21:55.546Z,966.97
2017-03-03T08:23:06.600Z,966.94
2017-03-03T08:24:17.301Z,966.98
2017-03-03T08:25:27.616Z,966.97
2017-03-03T08:26:38.319Z,967
2017-03-03T08:27:49.028Z,966.97
2017-03-03T08:28:59.725Z,966.97
2017-03-03T08:30:10.421Z,967.01
2017-03-03T08:31:21.114Z,966.95
2017-03-03T08:32:31.826Z,966.99
2017-03-03T08:33:42.543Z,967
2017-03-03T08:34:53.255Z,966.95
2017-03-03T08:36:03.965Z,966.84
2017-03-03T08:37:14.665Z,966.93
2017-03-03T08:38:25.365Z,967.01
2017-03-03T08:39:36.072Z,966.98
2017-03-03T08:40:46.775Z,966.99
2017-03-03T08:41:57.516Z,967.07
2017-03-03T08:43:08.246Z,967.08
2017-03-03T08:44:18.960Z,967.01
2017-03-03T08:45:29.250Z,966.97
2017-03-03T08:46:39.997Z,966.96
2017-03-03T08:47:50.701Z,966.93
2017-03-03T08:49:01.494Z,966.9
2017-03-03T08:50:12.410Z,966.88
2017-03-03T08:51:23.916Z,966.87
2017-03-03T08:52:34.861Z,966.91
2017-03-03T08:53:45.558Z,966.9
2017-03-03T08:54:56.270Z,966.91
2017-03-03T08:56:06.586Z,966.96
2017-03-03T08:57:16.520Z,966.96
2017-03-03T08:58:27.230Z,966.97
2017-03-03T08:59:37.556Z,966.99
2017-03-03T09:00:48.283Z,967.02
2017-03-03T09:01:58.976Z,966.97
2017-03-03T09:03:09.705Z,966.99
2017-03-03T09:04:20.416Z,966.94
2017-03-03T09:05:31.122Z,966.9
2017-03-03T09:06:41.833Z,966.95
2017-03-03T09:07:52.154Z,966.96
2017-03-03T09:09:02.872Z,966.93
2017-03-03T09:10:13.587Z,966.96
2017-03-03T09:11:23.884Z,966.98
2017-03-03T09:12:34.586Z,967.03
2017-03-03T09:13:45.288Z,967
2017-03-03T09:14:55.988Z,967.02
2017-03-03T09:16:06.304Z,966.94
2017-03-03T09:17:17.009Z,966.98
2017-03-03T09:18:27.715Z,966.9
2017-03-03T09:19:38.424Z,966.93
2017-03-03T09:20:49.141Z,966.99
2017-03-03T09:21:59.830Z,966.93
2017-03-03T09:23:10.512Z,967.02
2017-03-03T09:24:21.217Z,967.07
2017-03-03T09:25:31.525Z,967.13
2017-03-03T09:26:41.828Z,967.2
2017-03-03T09:27:52.135Z,967.13
2017-03-03T09:29:02.854Z,967.19
2017-03-03T09:30:13.575Z,967.2
2017-03-03T09:31:24.277Z,967.27
2017-03-03T09:32:34.972Z,967.22
2017-03-03T09:33:45.669Z,967.29
2017-03-03T09:34:56.369Z,967.22
2017-03-03T09:36:06.705Z,967.24
2017-03-03T09:37:17.395Z,967.18
2017-03-03T09:38:28.101Z,967.18
2017-03-03T09:39:38.441Z,967.24
2017-03-03T09:40:49.157Z,967.14
2017-03-03T09:41:59.852Z,967.12
2017-03-03T09:43:09.768Z,967.14
2017-03-03T09:44:20.489Z,967.14
2017-03-03T09:45:30.798Z,967.12
2017-03-03T09:46:41.492Z,967.12
2017-03-03T09:47:52.211Z,967.1
2017-03-03T09:49:02.920Z,967.09
2017-03-03T09:50:13.631Z,967.07
2017-03-03T09:51:24.349Z,967.11
2017-03-03T09:52:34.279Z,967.14
2017-03-03T09:53:44.596Z,967.17
2017-03-03T09:54:55.289Z,967.19
2017-03-03T09:56:05.583Z,967.2
2017-03-03T09:57:15.491Z,967.16
2017-03-03T09:58:26.215Z,967.25
2017-03-03T09:59:36.917Z,967.23
2017-03-03T10:00:47.624Z,967.19
2017-03-03T10:01:58.328Z,967.13
2017-03-03T10:03:08.631Z,967.14
2017-03-03T10:04:19.359Z,967.14
2017-03-03T10:05:30.054Z,967.19
2017-03-03T10:06:40.766Z,967.17
2017-03-03T10:07:51.462Z,967.19
2017-03-03T10:09:02.184Z,967.16
2017-03-03T10:10:12.910Z,967.14
2017-03-03T10:11:23.227Z,967.17
2017-03-03T10:12:33.541Z,967.19
2017-03-03T10:13:44.267Z,967.19
2017-03-03T10:14:54.977Z,967.17
2017-03-03T10:16:05.677Z,967.18
2017-03-03T10:17:15.971Z,967.2
2017-03-03T10:18:26.290Z,967.23
2017-03-03T10:19:36.607Z,967.22
2017-03-03T10:20:47.305Z,967.2
2017-03-03T10:21:58.035Z,967.23
2017-03-03T10:23:08.333Z,967.21
2017-03-03T10:24:18.644Z,967.21
2017-03-03T10:25:29.355Z,967.21
2017-03-03T10:26:39.283Z,967.23
2017-03-03T10:27:49.596Z,967.24
2017-03-03T10:29:00.295Z,967.25
2017-03-03T10:30:11.014Z,967.28
2017-03-03T10:31:21.712Z,967.28
2017-03-03T10:32:32.029Z,967.29
2017-03-03T10:33:42.334Z,967.3
2017-03-03T10:34:53.037Z,967.29
2017-03-03T10:36:03.327Z,967.31
2017-03-03T10:37:14.038Z,967.34
2017-03-03T10:38:24.331Z,967.33
2017-03-03T10:39:34.630Z,967.33
2017-03-03T10:40:45.330Z,967.36
2017-03-03T10:41:56.040Z,967.36
2017-03-03T10:43:06.763Z,967.42
2017-03-03T10:44:17.065Z,967.38
2017-03-03T10:45:27.383Z,967.34
2017-03-03T10:46:37.692Z,967.38
2017-03-03T10:47:48.389Z,967.37
2017-03-03T10:48:59.133Z,967.43
2017-03-03T10:50:09.861Z,967.4
2017-03-03T10:51:19.759Z,967.43
2017-03-03T10:52:30.078Z,967.42
2017-03-03T10:53:40.370Z,967.44
2017-03-03T10:54:51.092Z,967.44
2017-03-03T10:56:01.790Z,967.47
2017-03-03T10:57:12.514Z,967.47
2017-03-03T10:58:23.217Z,967.48
2017-03-03T10:59:33.528Z,967.51
2017-03-03T11:00:44.233Z,967.5
2017-03-03T11:01:54.152Z,967.52
2017-03-03T11:03:04.878Z,967.55
2017-03-03T11:04:15.583Z,967.51
2017-03-03T11:05:25.888Z,967.51
2017-03-03T11:06:36.584Z,967.51
2017-03-03T11:07:47.287Z,967.5
2017-03-03T11:08:57.982Z,967.59
2017-03-03T11:10:08.703Z,967.62
2017-03-03T11:11:19.424Z,967.59
2017-03-03T11:12:29.731Z,967.65
2017-03-03T11:13:40.443Z,967.58
2017-03-03T11:14:50.741Z,967.61
2017-03-03T11:16:01.059Z,967.59
2017-03-03T11:17:11.372Z,967.65
2017-03-03T11:18:22.106Z,967.69
2017-03-03T11:19:32.813Z,967.65
2017-03-03T11:20:43.530Z,967.68
2017-03-03T11:21:54.223Z,967.67
2017-03-03T11:23:04.940Z,967.69
2017-03-03T11:24:15.660Z,967.69
2017-03-03T11:25:26.361Z,967.71
2017-03-03T11:26:37.061Z,967.72
2017-03-03T11:27:47.364Z,967.71
2017-03-03T11:28:58.081Z,967.76
2017-03-03T11:30:08.807Z,967.66
2017-03-03T11:31:19.513Z,967.78
2017-03-03T11:32:30.232Z,967.75
2017-03-03T11:33:40.941Z,967.74
2017-03-03T11:34:51.665Z,967.78
2017-03-03T11:36:02.394Z,967.75
2017-03-03T11:37:12.741Z,967.77
2017-03-03T11:38:23.067Z,967.79
2017-03-03T11:39:33.790Z,967.77
2017-03-03T11:40:44.509Z,967.73
2017-03-03T11:41:55.238Z,967.86
2017-03-03T11:43:06.044Z,967.87
2017-03-03T11:44:16.742Z,967.84
2017-03-03T11:45:27.462Z,967.87
2017-03-03T11:46:37.764Z,967.89
2017-03-03T11:47:48.473Z,967.94
2017-03-03T11:48:59.200Z,967.97
2017-03-03T11:50:09.535Z,968.02
2017-03-03T11:51:19.841Z,968.04
2017-03-03T11:52:30.548Z,968.06
2017-03-03T11:53:41.293Z,968
2017-03-03T11:54:52.012Z,967.96
2017-03-03T11:56:02.743Z,967.98
2017-03-03T11:57:13.469Z,967.95
2017-03-03T11:58:23.782Z,968.01
2017-03-03T11:59:34.513Z,968
2017-03-03T12:00:45.241Z,968.01
2017-03-03T12:01:55.961Z,968.07
2017-03-03T12:03:06.676Z,968.09
2017-03-03T12:04:17.395Z,968.07
2017-03-03T12:05:28.109Z,968.06
2017-03-03T12:06:38.840Z,968.1
2017-03-03T12:07:49.559Z,968.11
2017-03-03T12:09:00.275Z,968.09
2017-03-03T12:10:11.023Z,968.17
2017-03-03T12:11:21.760Z,968.27
2017-03-03T12:12:32.129Z,968.34
2017-03-03T12:13:42.450Z,968.43
2017-03-03T12:14:52.779Z,968.52
2017-03-03T12:16:03.522Z,968.61
2017-03-03T12:17:14.277Z,968.72
2017-03-03T12:18:25.003Z,968.71
2017-03-03T12:19:35.743Z,968.87
2017-03-03T12:20:46.466Z,968.76
2017-03-03T12:21:56.787Z,968.75
2017-03-03T12:23:07.094Z,968.77
2017-03-03T12:24:17.828Z,968.94
2017-03-03T12:25:28.561Z,969.14
2017-03-03T12:26:39.278Z,969.22
2017-03-03T12:27:50.003Z,969.03
2017-03-03T12:29:00.730Z,968.76
2017-03-03T12:30:11.457Z,968.66
2017-03-03T12:31:22.184Z,968.5
2017-03-03T12:32:32.898Z,968.47
2017-03-03T12:33:43.638Z,968.51
2017-03-03T12:34:54.358Z,968.47
2017-03-03T12:36:04.677Z,968.42
2017-03-03T12:37:14.599Z,968.42
2017-03-03T12:38:25.317Z,968.52
2017-03-03T12:39:36.037Z,968.55
2017-03-03T12:40:46.764Z,968.53
2017-03-03T12:41:59.608Z,968.63
2017-03-03T12:43:09.933Z,968.75
2017-03-03T12:44:20.644Z,968.95
2017-03-03T12:45:31.415Z,969.08
2017-03-03T12:46:42.142Z,969.03
2017-03-03T12:47:52.856Z,968.91
2017-03-03T12:49:03.574Z,968.8
2017-03-03T12:50:13.891Z,968.77
2017-03-03T12:51:23.813Z,968.72
2017-03-03T12:52:34.549Z,968.85
2017-03-03T12:53:45.283Z,968.96
2017-03-03T12:54:55.994Z,968.91
2017-03-03T12:56:06.305Z,968.91
2017-03-03T12:57:17.034Z,968.98
2017-03-03T12:58:26.966Z,968.94
2017-03-03T12:59:37.326Z,968.98
2017-03-03T13:00:47.659Z,968.96
2017-03-03T13:01:58.381Z,968.92
2017-03-03T13:03:08.713Z,969.02
2017-03-03T13:04:19.043Z,969.06
2017-03-03T13:05:29.752Z,969.06
2017-03-03T13:06:40.071Z,968.96
2017-03-03T13:07:50.795Z,969.07
2017-03-03T13:09:01.133Z,969.13
2017-03-03T13:10:10.671Z,969.03
2017-03-03T13:11:21.394Z,968.92
2017-03-03T13:12:32.102Z,968.7
2017-03-03T13:13:42.833Z,968.81
2017-03-03T13:14:53.187Z,968.82
2017-03-03T13:16:03.897Z,968.62
2017-03-03T13:17:14.240Z,968.41
2017-03-03T13:18:24.560Z,968.34
2017-03-03T13:19:35.290Z,968.37
2017-03-03T13:20:46.032Z,968.48
2017-03-03T13:21:56.373Z,968.4
2017-03-03T13:23:07.114Z,968.44
2017-03-03T13:24:17.447Z,968.36
2017-03-03T13:25:28.167Z,968.26
2017-03-03T13:26:38.898Z,968.29
2017-03-03T13:27:49.646Z,968.29
2017-03-03T13:29:00.365Z,968.31
2017-03-03T13:30:10.705Z,968.38
2017-03-03T13:31:21.417Z,968.25
2017-03-03T13:32:32.116Z,968.21
2017-03-03T13:33:42.832Z,968.12
2017-03-03T13:34:53.571Z,968.13
2017-03-03T13:36:04.297Z,968.14
2017-03-03T13:37:15.033Z,968.1
2017-03-03T13:38:25.742Z,968.11
2017-03-03T13:39:36.450Z,968.4
2017-03-03T13:40:47.170Z,968.55
2017-03-03T13:41:57.891Z,968.63
2017-03-03T13:43:08.603Z,968.5
2017-03-03T13:44:19.402Z,968.71
2017-03-03T13:45:29.322Z,968.91
2017-03-03T13:46:40.041Z,968.65
2017-03-03T13:47:49.972Z,968.46
2017-03-03T13:49:00.683Z,968.46
2017-03-03T13:50:11.017Z,968.76
2017-03-03T13:51:20.935Z,968.7
2017-03-03T13:52:31.256Z,968.19
2017-03-03T13:53:41.577Z,968.07
2017-03-03T13:54:52.277Z,968.31
2017-03-03T13:56:03.011Z,969.11
2017-03-03T13:57:13.726Z,969.41
2017-03-03T13:58:24.465Z,968.91
2017-03-03T13:59:35.184Z,968.76
2017-03-03T14:00:45.903Z,968.85
2017-03-03T14:01:56.634Z,968.86
2017-03-03T14:03:06.952Z,968.84
2017-03-03T14:04:17.283Z,968.85
2017-03-03T14:05:27.993Z,968.34
2017-03-03T14:06:38.717Z,968.18
2017-03-03T14:07:49.458Z,968.38
2017-03-03T14:09:00.178Z,968.77
2017-03-03T14:10:10.887Z,969
2017-03-03T14:11:21.606Z,968.72
2017-03-03T14:12:32.333Z,968.38
2017-03-03T14:13:43.069Z,968.57
2017-03-03T14:14:53.803Z,969.43
2017-03-03T14:16:04.516Z,969.58
2017-03-03T14:17:15.216Z,969.82
2017-03-03T14:18:25.919Z,969.65
2017-03-03T14:19:36.633Z,969.2
2017-03-03T14:20:47.350Z,968.77
2017-03-03T14:21:58.081Z,968.74
2017-03-03T14:23:08.806Z,969.14
2017-03-03T14:24:19.537Z,969.02
2017-03-03T14:25:29.844Z,968.4
2017-03-03T14:26:40.545Z,968.16
2017-03-03T14:27:51.277Z,968.63
2017-03-03T14:29:02.009Z,968.61
2017-03-03T14:30:12.358Z,968.58
2017-03-03T14:31:23.099Z,968.52
2017-03-03T14:32:33.428Z,968.49
2017-03-03T14:33:43.368Z,968.4
2017-03-03T14:34:54.080Z,968.32
2017-03-03T14:36:04.841Z,968.36
2017-03-03T14:37:15.546Z,968.29
2017-03-03T14:38:26.257Z,968.29
2017-03-03T14:39:36.575Z,968.34
2017-03-03T14:40:47.313Z,968.3
2017-03-03T14:41:58.024Z,968.36
2017-03-03T14:43:08.747Z,968.36
2017-03-03T14:44:19.471Z,968.26